createdAt,value
2022-10-19T00:02:02.010Z,7.47
2022-10-19T00:05:04.421Z,7.43
2022-10-19T00:08:06.658Z,7.26
2022-10-19T00:11:09.052Z,7.46
2022-10-19T00:14:14.595Z,7.47
2022-10-19T00:17:16.768Z,7.54
2022-10-19T00:20:18.938Z,7.62
2022-10-19T00:23:22.889Z,7.16
2022-10-19T00:26:25.328Z,7.18
2022-10-19T00:29:27.491Z,7.36
2022-10-19T00:32:29.739Z,7.40
2022-10-19T00:35:31.897Z,7.19
2022-10-19T00:38:34.072Z,7.29
2022-10-19T00:41:36.784Z,7.36
2022-10-19T00:44:38.901Z,7.35
2022-10-19T00:47:42.709Z,7.29
2022-10-19T00:50:45.746Z,7.02
2022-10-19T00:53:47.971Z,7.08
2022-10-19T00:56:53.162Z,7.29
2022-10-19T00:59:55.744Z,7.20
2022-10-19T01:02:58.976Z,7.06
2022-10-19T01:06:01.851Z,6.54
2022-10-19T01:09:04.048Z,6.48
2022-10-19T01:12:28.606Z,6.78
2022-10-19T01:15:31.140Z,6.89
2022-10-19T01:18:45.926Z,6.64
2022-10-19T01:22:17.302Z,6.51
2022-10-19T01:25:30.568Z,6.70
2022-10-19T01:28:39.085Z,6.63
2022-10-19T01:32:05.823Z,6.65
2022-10-19T01:35:33.684Z,6.78
2022-10-19T01:38:53.851Z,6.85
2022-10-19T01:42:32.919Z,6.78
2022-10-19T01:46:04.714Z,6.91
2022-10-19T01:49:43.469Z,6.85
2022-10-19T01:52:46.869Z,6.74
2022-10-19T01:55:51.848Z,6.57
2022-10-19T01:58:57.995Z,6.54
2022-10-19T02:02:04.223Z,6.58
2022-10-19T02:05:08.228Z,6.72
2022-10-19T02:08:41.848Z,6.75
2022-10-19T02:11:53.406Z,6.81
2022-10-19T02:15:01.056Z,6.74
2022-10-19T02:18:04.644Z,6.84
2022-10-19T02:21:07.645Z,6.98
2022-10-19T02:24:09.909Z,7.30
2022-10-19T02:27:12.795Z,7.30
2022-10-19T02:30:18.076Z,7.35
2022-10-19T02:33:20.349Z,7.47
2022-10-19T02:36:22.613Z,7.35
2022-10-19T02:39:25.367Z,7.37
2022-10-19T02:43:01.884Z,7.46
2022-10-19T02:46:18.126Z,7.46
2022-10-19T02:49:21.459Z,7.54
2022-10-19T02:52:23.708Z,7.66
2022-10-19T02:55:26.298Z,7.71
2022-10-19T02:58:28.555Z,7.60
2022-10-19T03:01:30.753Z,7.74
2022-10-19T03:04:33.037Z,7.80
2022-10-19T03:07:36.037Z,7.70
2022-10-19T03:10:38.551Z,7.64
2022-10-19T03:13:41.674Z,7.62
2022-10-19T03:16:43.925Z,7.56
2022-10-19T03:19:46.235Z,7.59
2022-10-19T03:22:48.678Z,7.59
2022-10-19T03:25:50.843Z,7.74
2022-10-19T03:28:53.118Z,7.77
2022-10-19T03:31:55.581Z,7.53
2022-10-19T03:34:57.754Z,7.53
2022-10-19T03:37:59.897Z,7.69
2022-10-19T03:41:06.232Z,7.99
2022-10-19T03:44:09.858Z,8.09
2022-10-19T03:47:18.776Z,8.07
2022-10-19T03:50:21.346Z,7.97
2022-10-19T03:53:23.547Z,7.84
2022-10-19T03:56:27.598Z,7.81
2022-10-19T03:59:29.779Z,7.75
2022-10-19T04:02:31.931Z,7.85
2022-10-19T04:05:34.169Z,7.67
2022-10-19T04:08:36.816Z,7.71
2022-10-19T04:11:39.689Z,7.80
2022-10-19T04:14:56.209Z,7.84
2022-10-19T04:17:59.743Z,7.88
2022-10-19T04:21:04.459Z,7.87
2022-10-19T04:24:10.095Z,7.90
2022-10-19T04:27:12.323Z,7.90
2022-10-19T04:30:14.513Z,7.84
2022-10-19T04:33:16.657Z,7.93
2022-10-19T04:36:19.290Z,7.80
2022-10-19T04:39:21.442Z,7.83
2022-10-19T04:42:23.604Z,7.74
2022-10-19T04:45:25.775Z,7.81
2022-10-19T04:48:27.937Z,7.78
2022-10-19T04:51:30.271Z,7.73
2022-10-19T04:54:32.433Z,7.74
2022-10-19T04:57:35.053Z,7.59
2022-10-19T05:00:38.588Z,7.50
2022-10-19T05:03:40.960Z,7.29
2022-10-19T05:06:43.209Z,7.33
2022-10-19T05:09:45.348Z,7.39
2022-10-19T05:12:47.527Z,7.29
2022-10-19T05:16:00.383Z,7.36
2022-10-19T05:19:03.118Z,7.40
2022-10-19T05:22:05.346Z,7.44
2022-10-19T05:25:08.175Z,7.43
2022-10-19T05:28:10.555Z,7.49
2022-10-19T05:31:18.319Z,7.52
2022-10-19T05:34:23.762Z,7.67
2022-10-19T05:37:26.176Z,7.78
2022-10-19T05:40:28.660Z,7.91
2022-10-19T05:43:30.857Z,8.14
2022-10-19T05:46:34.077Z,8.46
2022-10-19T05:49:36.313Z,8.65
2022-10-19T05:52:38.560Z,8.97
2022-10-19T05:55:40.871Z,9.35
2022-10-19T05:58:45.074Z,9.52
2022-10-19T06:01:48.118Z,9.86
2022-10-19T06:04:52.734Z,10.17
2022-10-19T06:07:55.191Z,10.50
2022-10-19T06:11:14.233Z,10.92
2022-10-19T06:14:19.767Z,11.25
2022-10-19T06:17:21.998Z,11.32
2022-10-19T06:20:24.463Z,11.58
2022-10-19T06:23:34.292Z,11.67
2022-10-19T06:26:39.889Z,11.95
2022-10-19T06:29:42.293Z,12.07
2022-10-19T06:32:47.715Z,12.13
2022-10-19T06:35:56.872Z,12.68
2022-10-19T06:39:02.102Z,13.48
2022-10-19T06:42:10.060Z,13.95
2022-10-19T06:45:16.867Z,14.87
2022-10-19T06:48:19.691Z,15.81
2022-10-19T06:51:22.403Z,16.56
2022-10-19T06:54:27.847Z,16.41
2022-10-19T06:57:30.306Z,15.81
2022-10-19T07:00:35.516Z,15.39
2022-10-19T07:03:37.740Z,15.21
2022-10-19T07:06:41.282Z,16.60
2022-10-19T07:09:47.249Z,16.17
2022-10-19T07:12:50.313Z,17.36
2022-10-19T07:16:06.278Z,17.74
2022-10-19T07:19:08.674Z,17.32
2022-10-19T07:22:13.457Z,17.08
2022-10-19T07:25:18.065Z,17.38
2022-10-19T07:28:24.415Z,16.74
2022-10-19T07:31:29.642Z,16.26
2022-10-19T07:34:34.809Z,16.61
2022-10-19T07:37:37.404Z,16.85
2022-10-19T07:40:43.560Z,17.56
2022-10-19T07:43:49.927Z,18.31
2022-10-19T07:46:52.135Z,18.88
2022-10-19T07:50:16.805Z,18.92
2022-10-19T07:53:19.160Z,18.72
2022-10-19T07:56:24.124Z,18.65
2022-10-19T07:59:32.443Z,18.35
2022-10-19T08:02:45.852Z,18.12
2022-10-19T08:06:09.094Z,18.25
2022-10-19T08:09:22.803Z,18.20
2022-10-19T08:12:38.332Z,18.53
2022-10-19T08:15:40.672Z,18.59
2022-10-19T08:18:42.862Z,19.09
2022-10-19T08:21:46.996Z,19.04
2022-10-19T08:24:49.259Z,19.49
2022-10-19T08:27:51.462Z,21.04
2022-10-19T08:30:58.086Z,21.76
2022-10-19T08:34:00.501Z,21.20
2022-10-19T08:37:10.241Z,20.83
2022-10-19T08:40:33.067Z,20.33
2022-10-19T08:43:38.871Z,20.08
2022-10-19T08:46:49.420Z,19.92
2022-10-19T08:49:52.275Z,19.43
2022-10-19T08:53:08.014Z,19.65
2022-10-19T08:56:58.422Z,19.53
2022-10-19T09:00:16.505Z,19.91
2022-10-19T09:03:37.774Z,19.89
2022-10-19T09:07:23.922Z,19.46
2022-10-19T09:10:34.056Z,19.47
2022-10-19T09:14:04.174Z,19.46
2022-10-19T09:17:14.002Z,19.55
2022-10-19T09:20:29.805Z,19.77
2022-10-19T09:23:52.745Z,19.58
2022-10-19T09:27:02.320Z,19.53
2022-10-19T09:30:18.042Z,19.51
2022-10-19T09:33:36.329Z,19.33
2022-10-19T09:36:50.608Z,19.41
2022-10-19T09:39:55.541Z,19.63
2022-10-19T09:42:59.476Z,20.16
2022-10-19T09:46:20.332Z,20.42
2022-10-19T09:49:41.596Z,20.25
2022-10-19T09:53:05.301Z,20.01
2022-10-19T09:56:09.074Z,19.72
2022-10-19T09:59:23.188Z,19.96
2022-10-19T10:02:31.532Z,20.02
2022-10-19T10:05:41.447Z,20.06
2022-10-19T10:08:59.837Z,20.22
2022-10-19T10:12:08.497Z,20.76
2022-10-19T10:15:18.201Z,22.07
2022-10-19T10:18:20.778Z,22.44
2022-10-19T10:21:49.386Z,22.16
2022-10-19T10:24:56.828Z,22.10
2022-10-19T10:28:02.710Z,22.36
2022-10-19T10:31:07.588Z,22.32
2022-10-19T10:34:28.315Z,23.22
2022-10-19T10:37:45.536Z,24.32
2022-10-19T10:40:57.666Z,25.41
2022-10-19T10:44:06.766Z,26.90
2022-10-19T10:47:14.787Z,27.15
2022-10-19T10:50:24.294Z,28.44
2022-10-19T10:53:39.534Z,30.33
2022-10-19T10:56:44.454Z,31.57
2022-10-19T10:59:52.661Z,31.64
2022-10-19T11:03:13.955Z,33.37
2022-10-19T11:06:19.375Z,34.09
2022-10-19T11:09:33.495Z,34.86
2022-10-19T11:13:08.786Z,34.65
2022-10-19T11:16:26.474Z,34.78
2022-10-19T11:19:46.365Z,34.32
2022-10-19T11:23:11.249Z,34.49
2022-10-19T11:26:27.410Z,33.36
2022-10-19T11:29:48.910Z,34.22
2022-10-19T11:33:11.824Z,34.80
2022-10-19T11:36:30.326Z,36.40
2022-10-19T11:39:54.010Z,36.42
2022-10-19T11:43:26.959Z,35.99
2022-10-19T11:47:01.278Z,36.16
2022-10-19T11:50:32.462Z,35.65
2022-10-19T11:53:46.951Z,36.36
2022-10-19T11:57:03.992Z,36.14
2022-10-19T12:00:27.329Z,36.76
2022-10-19T12:04:07.775Z,37.35
2022-10-19T12:07:43.757Z,36.66
2022-10-19T12:10:54.792Z,37.00
2022-10-19T12:14:09.758Z,37.71
2022-10-19T12:17:20.473Z,37.00
2022-10-19T12:20:31.105Z,37.64
2022-10-19T12:23:37.555Z,37.35
2022-10-19T12:26:40.823Z,36.86
2022-10-19T12:29:47.888Z,36.77
2022-10-19T12:33:07.361Z,37.08
2022-10-19T12:36:30.819Z,36.73
2022-10-19T12:39:59.936Z,34.90
2022-10-19T12:43:21.728Z,35.50
2022-10-19T12:46:35.900Z,33.90
2022-10-19T12:49:47.010Z,34.75
2022-10-19T12:52:52.228Z,35.54
2022-10-19T12:56:09.289Z,34.97
2022-10-19T12:59:24.187Z,34.56
2022-10-19T13:05:57.418Z,34.19
2022-10-19T13:09:05.629Z,34.56
2022-10-19T13:12:16.257Z,34.12
2022-10-19T13:15:34.393Z,33.50
2022-10-19T13:19:13.516Z,32.98
2022-10-19T13:22:27.769Z,33.26
2022-10-19T13:25:35.046Z,33.00
2022-10-19T13:28:39.066Z,32.87
2022-10-19T13:31:41.300Z,32.04
2022-10-19T13:34:43.517Z,33.68
2022-10-19T13:37:45.740Z,31.81
2022-10-19T13:40:47.854Z,32.61
2022-10-19T13:44:12.075Z,32.85
2022-10-19T13:47:35.443Z,32.95
2022-10-19T13:51:01.419Z,33.46
2022-10-19T13:54:03.531Z,33.42
2022-10-19T13:57:05.700Z,32.74
2022-10-19T14:00:24.304Z,33.63
2022-10-19T14:03:41.291Z,32.93
2022-10-19T14:06:57.340Z,29.14
2022-10-19T14:10:07.486Z,29.96
2022-10-19T14:13:14.098Z,28.94
2022-10-19T14:16:21.721Z,27.23
2022-10-19T14:19:42.270Z,26.83
2022-10-19T14:22:44.444Z,26.83
2022-10-19T14:26:03.837Z,28.43
2022-10-19T14:29:13.543Z,28.20
2022-10-19T14:32:17.211Z,28.56
2022-10-19T14:35:33.092Z,28.06
2022-10-19T14:38:38.078Z,27.85
2022-10-19T14:41:40.264Z,27.98
2022-10-19T14:44:43.987Z,28.02
2022-10-19T14:48:01.514Z,26.57
2022-10-19T14:51:11.523Z,26.99
2022-10-19T14:54:36.988Z,26.12
2022-10-19T14:57:40.491Z,25.47
2022-10-19T15:00:43.405Z,23.62
2022-10-19T15:03:46.703Z,22.34
2022-10-19T15:06:49.355Z,21.34
2022-10-19T15:09:57.868Z,20.60
2022-10-19T15:13:05.702Z,20.39
2022-10-19T15:16:47.322Z,20.77
2022-10-19T15:19:49.565Z,21.12
2022-10-19T15:22:51.955Z,20.30
2022-10-19T15:26:03.431Z,19.95
2022-10-19T15:29:27.858Z,19.41
2022-10-19T15:32:35.565Z,19.17
2022-10-19T15:35:40.307Z,18.69
2022-10-19T15:38:44.783Z,18.47
2022-10-19T15:41:46.967Z,18.21
2022-10-19T15:44:49.735Z,18.12
2022-10-19T15:48:10.125Z,17.73
2022-10-19T15:51:27.471Z,17.66
2022-10-19T15:54:29.625Z,17.45
2022-10-19T15:57:39.310Z,17.28
2022-10-19T16:00:42.255Z,17.12
2022-10-19T16:03:45.711Z,17.12
2022-10-19T16:06:47.927Z,16.99
2022-10-19T16:09:50.091Z,16.88
2022-10-19T16:12:53.018Z,16.78
2022-10-19T16:16:10.346Z,16.64
2022-10-19T16:19:13.293Z,16.63
2022-10-19T16:22:16.208Z,16.50
2022-10-19T16:25:18.678Z,16.44
2022-10-19T16:28:20.847Z,16.43
2022-10-19T16:31:24.273Z,16.31
2022-10-19T16:34:26.480Z,16.23
2022-10-19T16:37:28.634Z,16.07
2022-10-19T16:40:31.252Z,16.00
2022-10-19T16:43:33.632Z,15.93
2022-10-19T16:46:35.804Z,15.82
2022-10-19T16:49:37.967Z,15.79
2022-10-19T16:52:40.144Z,15.78
2022-10-19T16:55:42.325Z,15.79
2022-10-19T16:58:45.642Z,15.63
2022-10-19T17:01:48.229Z,15.52
2022-10-19T17:04:50.528Z,15.57
2022-10-19T17:07:52.730Z,15.65
2022-10-19T17:10:54.908Z,15.59
2022-10-19T17:13:59.390Z,15.59
2022-10-19T17:17:01.576Z,15.44
2022-10-19T17:20:04.008Z,15.31
2022-10-19T17:23:06.211Z,15.24
2022-10-19T17:26:08.784Z,15.16
2022-10-19T17:29:11.892Z,15.10
2022-10-19T17:32:14.284Z,15.11
2022-10-19T17:35:16.456Z,14.91
2022-10-19T17:38:18.707Z,14.88
2022-10-19T17:41:22.158Z,14.93
2022-10-19T17:44:24.305Z,14.75
2022-10-19T17:47:26.471Z,14.35
2022-10-19T17:50:28.630Z,14.22
2022-10-19T17:53:31.295Z,13.92
2022-10-19T17:56:34.484Z,13.53
2022-10-19T17:59:52.045Z,13.40
2022-10-19T18:02:55.256Z,13.36
2022-10-19T18:05:57.392Z,13.43
2022-10-19T18:09:01.833Z,13.36
2022-10-19T18:12:05.022Z,13.27
2022-10-19T18:15:09.684Z,13.36
2022-10-19T18:18:11.837Z,13.28
2022-10-19T18:21:16.010Z,13.32
2022-10-19T18:24:20.243Z,13.40
2022-10-19T18:27:22.518Z,13.43
2022-10-19T18:30:24.687Z,13.47
2022-10-19T18:33:30.186Z,13.48
2022-10-19T18:36:34.640Z,13.42
2022-10-19T18:39:36.844Z,13.42
2022-10-19T18:42:39.085Z,13.36
2022-10-19T18:45:54.252Z,13.32
2022-10-19T18:48:56.424Z,13.44
2022-10-19T18:51:58.583Z,13.46
2022-10-19T18:55:00.739Z,13.47
2022-10-19T18:58:02.956Z,13.51
2022-10-19T19:01:10.336Z,13.58
2022-10-19T19:04:12.576Z,13.55
2022-10-19T19:07:14.739Z,13.61
2022-10-19T19:10:18.281Z,13.67
2022-10-19T19:13:20.574Z,13.57
2022-10-19T19:16:23.664Z,13.54
2022-10-19T19:19:27.518Z,13.60
2022-10-19T19:22:30.471Z,13.58
2022-10-19T19:25:32.650Z,13.50
2022-10-19T19:28:37.777Z,13.50
2022-10-19T19:31:42.978Z,13.51
2022-10-19T19:34:45.167Z,13.46
2022-10-19T19:37:47.325Z,13.46
2022-10-19T19:40:49.692Z,13.33
2022-10-19T19:43:51.923Z,13.32
2022-10-19T19:46:54.077Z,13.36
2022-10-19T19:49:56.235Z,13.28
2022-10-19T19:52:58.972Z,13.27
2022-10-19T19:56:01.168Z,13.32
2022-10-19T19:59:06.267Z,13.19
2022-10-19T20:02:09.458Z,13.14
2022-10-19T20:05:11.620Z,13.20
2022-10-19T20:08:13.854Z,13.14
2022-10-19T20:11:17.546Z,13.02
2022-10-19T20:14:20.141Z,13.00
2022-10-19T20:17:23.871Z,12.93
2022-10-19T20:20:26.059Z,12.82
2022-10-19T20:23:29.515Z,12.78
2022-10-19T20:26:31.994Z,12.85
2022-10-19T20:29:34.163Z,12.73
2022-10-19T20:32:37.758Z,12.72
2022-10-19T20:35:40.191Z,12.61
2022-10-19T20:38:53.198Z,12.56
2022-10-19T20:41:55.610Z,12.62
2022-10-19T20:44:57.839Z,12.56
2022-10-19T20:48:00.097Z,12.55
2022-10-19T20:51:14.708Z,12.56
2022-10-19T20:54:17.059Z,12.35
2022-10-19T20:57:19.226Z,12.45
2022-10-19T21:00:21.389Z,12.45
2022-10-19T21:03:23.948Z,12.42
2022-10-19T21:06:28.441Z,12.23
2022-10-19T21:09:30.763Z,12.24
2022-10-19T21:12:33.279Z,12.25
2022-10-19T21:15:35.628Z,12.14
2022-10-19T21:18:38.156Z,11.97
2022-10-19T21:21:46.225Z,12.10
2022-10-19T21:24:48.372Z,11.95
2022-10-19T21:27:52.036Z,11.95
2022-10-19T21:30:54.201Z,11.95
2022-10-19T21:33:56.891Z,11.97
2022-10-19T21:36:59.883Z,11.89
2022-10-19T21:40:02.075Z,11.83
2022-10-19T21:43:04.630Z,11.87
2022-10-19T21:46:11.015Z,11.83
2022-10-19T21:49:13.588Z,11.73
2022-10-19T21:52:16.238Z,11.74
2022-10-19T21:55:18.511Z,11.56
2022-10-19T21:58:22.267Z,11.53
2022-10-19T22:01:27.825Z,11.62
2022-10-19T22:04:30.079Z,11.55
2022-10-19T22:07:32.394Z,11.52
2022-10-19T22:10:37.707Z,11.52
2022-10-19T22:13:40.034Z,11.39
2022-10-19T22:16:42.686Z,11.36
2022-10-19T22:19:44.836Z,11.35
2022-10-19T22:22:49.233Z,11.25
2022-10-19T22:25:53.672Z,11.23
2022-10-19T22:28:58.065Z,11.21
2022-10-19T22:32:00.234Z,11.08
2022-10-19T22:35:02.403Z,11.04
2022-10-19T22:38:04.628Z,11.00
2022-10-19T22:41:06.827Z,11.04
2022-10-19T22:44:08.979Z,11.04
2022-10-19T22:47:11.199Z,11.01
2022-10-19T22:50:14.259Z,10.98
2022-10-19T22:53:16.412Z,10.81
2022-10-19T22:56:18.632Z,10.77
2022-10-19T22:59:20.798Z,10.72
2022-10-19T23:02:23.004Z,10.57
2022-10-19T23:05:25.211Z,10.64
2022-10-19T23:08:27.915Z,10.57
2022-10-19T23:11:30.108Z,10.50
2022-10-19T23:14:32.298Z,10.54
2022-10-19T23:17:34.721Z,10.37
2022-10-19T23:20:37.025Z,10.34
2022-10-19T23:23:39.401Z,10.33
2022-10-19T23:26:41.554Z,10.30
2022-10-19T23:29:43.719Z,10.16
2022-10-19T23:32:45.866Z,10.12
2022-10-19T23:35:48.035Z,10.14
2022-10-19T23:38:51.588Z,10.21
2022-10-19T23:41:53.744Z,10.23
2022-10-19T23:44:55.955Z,10.17
2022-10-19T23:47:58.180Z,10.12
2022-10-19T23:51:01.174Z,10.09
2022-10-19T23:54:03.412Z,10.06
2022-10-19T23:57:05.979Z,10.06
